Time;durP1;ratioP1;P1;durP2;ratioP2;P2;SDS_P1;SDS_P2;PMS_P1;PMS_P2;Temp;Humidity;BMP_temperature;BMP_pressure;BME280_temperature;BME280_humidity;BME280_pressure;Samples;Min_cycle;Max_cycle;Signal;HPM_P1;HPM_P2
2022/04/02 00:01:30;;;;;;;3.90;1.93;;;3.90;1.00;;;;;;5068153;28;20192;-83
2022/04/02 00:04:13;;;;;;;4.53;2.23;;;3.90;1.00;;;;;;5065022;28;20158;-81
2022/04/02 00:06:40;;;;;;;2.53;1.53;;;3.90;1.00;;;;;;5050929;28;20252;-77
2022/04/02 00:09:24;;;;;;;3.53;2.50;;;3.90;1.00;;;;;;5068456;28;20209;-84
2022/04/02 00:11:50;;;;;;;4.90;2.23;;;3.90;1.00;;;;;;5059108;28;20247;-77
2022/04/02 00:14:17;;;;;;;5.07;2.27;;;3.90;1.00;;;;;;5057703;28;20189;-86
2022/04/02 00:16:43;;;;;;;3.57;2.57;;;3.90;1.00;;;;;;5037224;28;20177;-90
2022/04/02 00:19:09;;;;;;;3.53;2.13;;;3.90;1.00;;;;;;5067170;28;20264;-82
2022/04/02 00:21:37;;;;;;;4.63;2.60;;;3.80;1.00;;;;;;5065466;28;20220;-78
2022/04/02 00:24:17;;;;;;;3.33;1.83;;;3.90;1.00;;;;;;5056321;28;20157;-85
2022/04/02 00:26:42;;;;;;;2.33;1.37;;;3.90;1.00;;;;;;5053972;28;20164;-86
2022/04/02 00:29:11;;;;;;;4.07;2.13;;;3.90;1.00;;;;;;5054625;28;20165;-86
2022/04/02 00:31:37;;;;;;;5.03;2.53;;;3.90;1.00;;;;;;5056251;28;20165;-84
2022/04/02 00:34:03;;;;;;;5.33;2.23;;;3.90;1.00;;;;;;5074740;28;20157;-75
2022/04/02 00:36:34;;;;;;;5.60;2.20;;;3.80;1.00;;;;;;5072952;28;20178;-77
2022/04/02 00:39:20;;;;;;;4.07;2.53;;;3.80;1.00;;;;;;5067053;28;20196;-81
2022/04/02 00:41:45;;;;;;;5.07;2.20;;;3.80;1.00;;;;;;5058282;28;20187;-77
2022/04/02 00:44:17;;;;;;;6.20;2.27;;;3.80;1.00;;;;;;5038999;28;20640;-78
2022/04/02 00:46:44;;;;;;;3.23;1.80;;;3.80;1.00;;;;;;5057188;28;20176;-76
2022/04/02 00:49:13;;;;;;;4.53;2.40;;;3.80;1.00;;;;;;5057716;28;20236;-79
2022/04/02 00:51:43;;;;;;;3.60;2.17;;;3.80;1.00;;;;;;5058913;28;20176;-80
2022/04/02 00:54:12;;;;;;;4.03;2.20;;;3.80;1.00;;;;;;5057702;28;20180;-76
2022/04/02 00:56:39;;;;;;;4.30;1.80;;;3.80;1.00;;;;;;5038543;28;20192;-87
2022/04/02 00:59:05;;;;;;;4.80;2.30;;;3.70;1.00;;;;;;5057113;28;20204;-88
2022/04/02 01:01:31;;;;;;;5.23;2.50;;;3.70;1.00;;;;;;5058108;28;20195;-79
2022/04/02 01:04:00;;;;;;;3.80;2.20;;;3.80;1.00;;;;;;5042303;28;20637;-75
2022/04/02 01:06:28;;;;;;;6.60;2.70;;;3.60;1.00;;;;;;5061015;28;20227;-82
2022/04/02 01:08:55;;;;;;;4.53;2.73;;;3.80;1.00;;;;;;5076641;28;20211;-78
2022/04/02 01:11:21;;;;;;;4.03;2.57;;;3.60;1.00;;;;;;5071450;28;20176;-78
2022/04/02 01:13:47;;;;;;;4.17;1.90;;;3.60;1.00;;;;;;5056418;28;20199;-86
2022/04/02 01:16:13;;;;;;;2.83;2.03;;;3.60;1.00;;;;;;5056200;28;20165;-78
2022/04/02 01:18:39;;;;;;;5.00;2.80;;;3.50;1.00;;;;;;5038418;28;20201;-78
2022/04/02 01:21:04;;;;;;;4.93;2.13;;;3.50;1.00;;;;;;5056957;28;20605;-88
2022/04/02 01:23:31;;;;;;;6.23;3.13;;;3.50;1.00;;;;;;5055885;28;20680;-75
2022/04/02 01:26:00;;;;;;;3.90;1.97;;;3.20;1.00;;;;;;5055562;28;20172;-85
2022/04/02 01:28:33;;;;;;;4.93;2.70;;;3.60;1.00;;;;;;5055808;28;20170;-87
2022/04/02 01:31:01;;;;;;;4.33;2.60;;;3.40;1.00;;;;;;5056991;28;20201;-84
2022/04/02 01:33:27;;;;;;;5.77;2.90;;;3.40;1.00;;;;;;5057523;28;20165;-76
2022/04/02 01:36:04;;;;;;;3.83;2.57;;;3.40;1.00;;;;;;5063890;28;20531;-85
2022/04/02 01:38:30;;;;;;;2.90;2.27;;;3.40;1.00;;;;;;5065431;28;20240;-76
2022/04/02 01:40:57;;;;;;;4.57;2.93;;;3.40;1.00;;;;;;5069535;28;20213;-77
2022/04/02 01:43:28;;;;;;;5.13;3.30;;;3.40;1.00;;;;;;5062763;28;20682;-74
2022/04/02 01:46:00;;;;;;;6.13;2.60;;;3.40;1.00;;;;;;5057196;28;20688;-77
2022/04/02 01:48:26;;;;;;;6.00;2.50;;;3.40;1.00;;;;;;5056603;28;20204;-79
2022/04/02 01:50:52;;;;;;;5.63;2.80;;;3.30;1.00;;;;;;5056772;28;20165;-80
2022/04/02 01:53:18;;;;;;;5.47;3.67;;;3.30;1.00;;;;;;5056627;28;20177;-80
2022/04/02 01:55:46;;;;;;;4.20;2.77;;;3.10;1.00;;;;;;5055891;28;20172;-87
2022/04/02 01:58:12;;;;;;;6.57;2.87;;;3.20;1.00;;;;;;5056223;28;20165;-79
2022/04/02 02:00:38;;;;;;;5.47;2.80;;;3.20;1.00;;;;;;5058653;28;20210;-79
2022/04/02 02:03:13;;;;;;;3.60;2.07;;;3.20;1.00;;;;;;5058488;28;20177;-79
2022/04/02 02:05:40;;;;;;;4.07;2.43;;;3.10;1.00;;;;;;5058103;28;20161;-81
2022/04/02 02:08:06;;;;;;;6.27;3.40;;;3.10;1.00;;;;;;5076645;28;20264;-88
2022/04/02 02:10:32;;;;;;;5.43;2.80;;;3.10;1.00;;;;;;5078593;28;20199;-76
2022/04/02 02:12:59;;;;;;;10.10;4.07;;;3.10;1.00;;;;;;5062530;28;20193;-80
2022/04/02 02:15:26;;;;;;;5.73;2.60;;;3.30;1.00;;;;;;5044438;28;20180;-77
2022/04/02 02:17:54;;;;;;;5.80;2.70;;;3.20;1.00;;;;;;5077080;28;20161;-76
2022/04/02 02:20:21;;;;;;;5.60;2.90;;;3.10;1.00;;;;;;5071066;28;20208;-75
2022/04/02 02:22:50;;;;;;;3.83;2.23;;;3.10;1.00;;;;;;5069632;28;20232;-76
2022/04/02 02:25:27;;;;;;;7.33;2.83;;;3.10;1.00;;;;;;5065960;28;20165;-80
2022/04/02 02:28:16;;;;;;;8.07;2.43;;;3.10;1.00;;;;;;5062540;28;20172;-82
2022/04/02 02:30:43;;;;;;;4.53;2.50;;;3.10;1.00;;;;;;5065958;28;20165;-84
2022/04/02 02:35:53;;;;;;;5.40;2.63;;;3.10;1.00;;;;;;5071218;28;20180;-74
2022/04/02 02:38:26;;;;;;;4.23;2.70;;;3.10;1.00;;;;;;5073036;28;20174;-75
2022/04/02 02:40:58;;;;;;;3.33;1.73;;;3.10;1.00;;;;;;5070482;28;20172;-75
2022/04/02 02:43:27;;;;;;;3.67;2.00;;;3.20;1.00;;;;;;5070158;28;20211;-75
2022/04/02 02:45:55;;;;;;;5.90;2.00;;;3.10;1.00;;;;;;5061159;28;20165;-76
2022/04/02 02:48:27;;;;;;;3.53;2.03;;;3.10;1.00;;;;;;5061066;28;20180;-85
2022/04/02 02:50:53;;;;;;;5.40;2.60;;;3.00;1.00;;;;;;5060186;28;20206;-89
2022/04/02 02:53:18;;;;;;;4.37;2.83;;;3.00;1.00;;;;;;5057658;28;20612;-82
2022/04/02 02:55:44;;;;;;;3.70;2.00;;;3.00;1.00;;;;;;5055080;28;20161;-87
2022/04/02 02:58:10;;;;;;;5.57;2.23;;;3.00;1.00;;;;;;5055109;28;20641;-88
2022/04/02 03:00:36;;;;;;;3.33;1.97;;;3.00;1.00;;;;;;5055786;28;20259;-77
2022/04/02 03:03:02;;;;;;;4.10;2.63;;;3.00;1.00;;;;;;5054979;28;20227;-75
2022/04/02 03:05:28;;;;;;;4.40;2.50;;;2.90;1.00;;;;;;5054477;28;20203;-84
2022/04/02 03:07:53;;;;;;;3.50;2.57;;;2.90;1.00;;;;;;5071229;28;20551;-81
2022/04/02 03:10:25;;;;;;;6.70;3.00;;;2.90;1.00;;;;;;5074892;28;20192;-84
2022/04/02 03:12:52;;;;;;;3.50;1.63;;;2.90;1.00;;;;;;5039370;28;20634;-79
2022/04/02 03:15:18;;;;;;;3.43;2.33;;;2.90;1.00;;;;;;5055776;28;20189;-85
2022/04/02 03:17:45;;;;;;;5.53;2.60;;;2.90;1.00;;;;;;5062162;28;20169;-84
2022/04/02 03:20:12;;;;;;;5.17;2.70;;;2.90;1.00;;;;;;5060925;28;20268;-75
2022/04/02 03:22:43;;;;;;;5.07;2.50;;;2.90;1.00;;;;;;5055066;28;20696;-86
2022/04/02 03:25:11;;;;;;;5.83;1.70;;;2.90;1.00;;;;;;5036395;28;20559;-86
2022/04/02 03:27:39;;;;;;;4.37;2.57;;;2.90;1.00;;;;;;5058250;28;20180;-76
2022/04/02 03:30:11;;;;;;;5.47;2.20;;;2.80;1.00;;;;;;5061919;28;20231;-80
2022/04/02 03:32:39;;;;;;;4.63;2.30;;;2.80;1.00;;;;;;5057541;28;20145;-76
2022/04/02 03:35:05;;;;;;;5.57;2.70;;;2.80;1.00;;;;;;5055051;28;20165;-75
2022/04/02 03:37:32;;;;;;;4.10;2.23;;;2.80;1.00;;;;;;5054861;28;20133;-84
2022/04/02 03:39:58;;;;;;;4.67;2.70;;;2.80;1.00;;;;;;5054008;28;20204;-79
2022/04/02 03:42:25;;;;;;;4.33;2.17;;;2.80;1.00;;;;;;5054244;28;20698;-78
2022/04/02 03:44:51;;;;;;;4.83;2.47;;;2.80;1.00;;;;;;5053614;28;20207;-78
2022/04/02 03:47:22;;;;;;;4.27;2.00;;;3.00;1.00;;;;;;5065178;28;20165;-74
2022/04/02 03:49:49;;;;;;;4.53;2.10;;;2.80;1.00;;;;;;5067380;28;20698;-82
2022/04/02 03:52:15;;;;;;;3.23;2.00;;;2.80;1.00;;;;;;5064318;28;20180;-85
2022/04/02 03:54:41;;;;;;;4.53;2.47;;;2.80;1.00;;;;;;5059397;28;20231;-76
2022/04/02 03:57:11;;;;;;;4.20;2.60;;;2.80;1.00;;;;;;5048404;28;20192;-75
2022/04/02 03:59:40;;;;;;;3.47;2.30;;;2.80;1.00;;;;;;5067033;28;20204;-75
2022/04/02 04:02:07;;;;;;;3.53;2.03;;;2.70;1.00;;;;;;5066020;28;20168;-80
2022/04/02 04:04:33;;;;;;;3.30;1.97;;;2.80;1.00;;;;;;5065611;28;20163;-77
2022/04/02 04:06:59;;;;;;;4.33;2.30;;;2.80;1.00;;;;;;5061623;28;20244;-79
2022/04/02 04:09:34;;;;;;;5.13;2.07;;;2.70;1.00;;;;;;5060344;28;20231;-85
2022/04/02 04:12:02;;;;;;;5.53;2.90;;;2.80;1.00;;;;;;5071930;28;20198;-76
2022/04/02 04:14:28;;;;;;;6.73;2.40;;;2.80;1.00;;;;;;5096331;28;20176;-76
2022/04/02 04:16:55;;;;;;;3.67;1.87;;;2.70;1.00;;;;;;5072725;28;20179;-87
2022/04/02 04:19:40;;;;;;;6.90;1.93;;;2.80;1.00;;;;;;5079135;28;20200;-84
2022/04/02 04:22:06;;;;;;;3.10;2.13;;;2.80;1.00;;;;;;5077816;28;20196;-80
2022/04/02 04:24:34;;;;;;;4.63;2.47;;;2.80;1.00;;;;;;5077866;28;20168;-86
2022/04/02 04:26:59;;;;;;;4.57;2.50;;;2.80;1.00;;;;;;5091377;28;20169;-76
2022/04/02 04:29:25;;;;;;;5.23;2.30;;;2.80;1.00;;;;;;5089742;28;20187;-76
2022/04/02 04:31:53;;;;;;;6.07;2.00;;;2.70;1.00;;;;;;5081781;28;20149;-80
2022/04/02 04:34:21;;;;;;;2.87;2.03;;;2.80;1.00;;;;;;5079012;28;20218;-87
2022/04/02 04:36:47;;;;;;;3.20;1.83;;;2.90;1.00;;;;;;5078790;28;20244;-77
2022/04/02 04:39:13;;;;;;;3.93;2.37;;;2.80;1.00;;;;;;5089571;28;20211;-78
2022/04/02 04:41:38;;;;;;;5.30;2.50;;;2.80;1.00;;;;;;5089139;28;20263;-75
2022/04/02 04:44:05;;;;;;;5.40;2.50;;;2.70;1.00;;;;;;5060952;28;20180;-75
2022/04/02 04:46:31;;;;;;;4.30;2.30;;;2.70;1.00;;;;;;5061705;28;20193;-74
2022/04/02 04:48:57;;;;;;;3.10;2.27;;;2.70;1.00;;;;;;5078683;28;20152;-75
2022/04/02 04:51:23;;;;;;;3.73;2.20;;;2.70;1.00;;;;;;5090818;28;20180;-74
2022/04/02 04:53:51;;;;;;;3.80;2.43;;;2.70;1.00;;;;;;5089585;28;20185;-75
2022/04/02 04:56:20;;;;;;;4.27;2.27;;;2.80;1.00;;;;;;5079431;28;20156;-84
2022/04/02 04:59:12;;;;;;;4.07;2.23;;;2.70;1.00;;;;;;5078059;28;20192;-77
2022/04/02 05:01:38;;;;;;;3.77;2.67;;;2.70;1.00;;;;;;5077988;28;20152;-77
2022/04/02 05:04:07;;;;;;;5.43;2.33;;;2.70;1.00;;;;;;5058805;28;20716;-75
2022/04/02 05:06:35;;;;;;;5.10;2.43;;;2.70;1.00;;;;;;5079083;28;20165;-74
2022/04/02 05:09:01;;;;;;;4.77;2.40;;;2.70;1.00;;;;;;5067738;28;20169;-75
2022/04/02 05:11:27;;;;;;;4.17;2.50;;;2.60;1.00;;;;;;5066088;28;20183;-80
2022/04/02 05:13:53;;;;;;;5.13;2.20;;;2.70;1.00;;;;;;5079203;28;20274;-85
2022/04/02 05:16:19;;;;;;;4.83;2.37;;;2.70;1.00;;;;;;5079192;28;20227;-87
2022/04/02 05:18:46;;;;;;;4.40;2.37;;;2.70;1.00;;;;;;5085541;28;20208;-77
2022/04/02 05:21:11;;;;;;;4.93;2.60;;;2.70;1.00;;;;;;5085144;28;20231;-75
2022/04/02 05:23:37;;;;;;;3.80;2.20;;;2.70;1.00;;;;;;5081059;28;20184;-79
2022/04/02 05:26:03;;;;;;;3.77;2.50;;;2.70;1.00;;;;;;5078090;28;20160;-79
2022/04/02 05:28:29;;;;;;;4.73;2.20;;;2.70;1.00;;;;;;5081174;28;20161;-81
2022/04/02 05:30:54;;;;;;;3.47;2.13;;;2.60;1.00;;;;;;5061001;28;20647;-85
2022/04/02 05:33:21;;;;;;;4.73;2.00;;;2.60;1.00;;;;;;5076483;28;20221;-87
2022/04/02 05:35:48;;;;;;;4.03;2.70;;;2.60;1.00;;;;;;5058958;28;20215;-88
2022/04/02 05:38:14;;;;;;;6.93;2.83;;;2.70;1.00;;;;;;5077138;28;20198;-84
2022/04/02 05:40:40;;;;;;;6.23;2.33;;;2.70;1.00;;;;;;5077515;28;20176;-77
2022/04/02 05:43:06;;;;;;;4.13;2.10;;;2.70;1.00;;;;;;5077089;28;20199;-84
2022/04/02 05:45:33;;;;;;;4.03;2.10;;;2.60;1.00;;;;;;5076527;28;20176;-75
2022/04/02 05:47:59;;;;;;;3.57;2.00;;;2.60;1.00;;;;;;5075238;28;20278;-76
2022/04/02 05:50:26;;;;;;;3.87;1.97;;;2.60;1.00;;;;;;5076853;28;20169;-78
2022/04/02 05:52:52;;;;;;;7.20;2.00;;;2.60;1.00;;;;;;5077721;28;20191;-85
2022/04/02 05:55:18;;;;;;;2.63;1.90;;;2.70;1.00;;;;;;5075819;28;20213;-78
2022/04/02 05:57:45;;;;;;;4.57;2.53;;;2.70;1.00;;;;;;5059973;28;20172;-82
2022/04/02 06:00:13;;;;;;;5.03;2.30;;;2.70;1.00;;;;;;5078489;28;20184;-82
2022/04/02 06:02:39;;;;;;;3.77;1.90;;;2.70;1.00;;;;;;5079489;28;20180;-80
2022/04/02 06:05:09;;;;;;;3.33;2.30;;;2.80;1.00;;;;;;5085353;28;20168;-75
2022/04/02 06:07:35;;;;;;;4.40;1.80;;;2.80;1.00;;;;;;5092021;28;20164;-79
2022/04/02 06:10:04;;;;;;;3.80;2.30;;;2.80;1.00;;;;;;5090375;28;20211;-76
2022/04/02 06:12:30;;;;;;;4.47;2.00;;;2.80;1.00;;;;;;5092116;28;20260;-78
2022/04/02 06:14:59;;;;;;;7.07;2.00;;;2.80;1.00;;;;;;5087009;28;20211;-84
2022/04/02 06:17:33;;;;;;;5.53;2.07;;;2.80;1.00;;;;;;5082545;28;20161;-84
2022/04/02 06:19:58;;;;;;;7.43;2.13;;;2.80;1.00;;;;;;5075335;28;20688;-76
2022/04/02 06:22:24;;;;;;;4.03;2.13;;;2.90;1.00;;;;;;5075198;28;20263;-82
2022/04/02 06:24:50;;;;;;;4.57;1.93;;;2.90;1.00;;;;;;5089254;28;20178;-74
2022/04/02 06:27:16;;;;;;;2.90;2.00;;;2.90;1.00;;;;;;5087331;28;20210;-82
2022/04/02 06:29:58;;;;;;;3.03;1.83;;;3.10;1.00;;;;;;5077543;28;20165;-81
2022/04/02 06:32:25;;;;;;;5.37;2.30;;;3.00;1.00;;;;;;5057638;28;20179;-86
2022/04/02 06:34:51;;;;;;;6.57;1.73;;;3.00;1.00;;;;;;5074837;28;20168;-79
2022/04/02 06:37:16;;;;;;;3.37;2.30;;;3.00;1.00;;;;;;5075293;28;20699;-83
2022/04/02 06:39:42;;;;;;;3.90;2.20;;;3.10;1.00;;;;;;5075654;28;20664;-85
2022/04/02 06:42:08;;;;;;;2.93;1.70;;;3.10;1.00;;;;;;5075671;28;20601;-82
2022/04/02 06:44:34;;;;;;;4.27;1.63;;;3.10;1.00;;;;;;5077169;28;20164;-75
2022/04/02 06:47:02;;;;;;;5.30;2.00;;;3.10;1.00;;;;;;5075595;28;20168;-78
2022/04/02 06:49:28;;;;;;;3.53;2.10;;;3.20;1.00;;;;;;5075088;28;20165;-83
2022/04/02 06:51:53;;;;;;;5.93;1.90;;;3.20;1.00;;;;;;5062217;28;20192;-77
2022/04/02 06:54:19;;;;;;;4.53;2.20;;;3.20;1.00;;;;;;5056953;28;20175;-81
2022/04/02 06:56:45;;;;;;;4.00;1.87;;;3.30;1.00;;;;;;5076671;28;20168;-86
2022/04/02 06:59:11;;;;;;;5.10;1.90;;;3.30;1.00;;;;;;5069230;28;20208;-87
2022/04/02 07:01:38;;;;;;;2.37;1.70;;;3.30;1.00;;;;;;5056203;28;20169;-86
2022/04/02 07:04:03;;;;;;;6.53;2.97;;;3.40;1.00;;;;;;5055986;28;20259;-85
2022/04/02 07:06:29;;;;;;;4.17;1.80;;;3.30;1.00;;;;;;5054555;28;20208;-82
2022/04/02 07:08:55;;;;;;;4.67;1.90;;;3.50;99.90;;;;;;5070404;28;20176;-85
2022/04/02 07:11:21;;;;;;;3.53;1.90;;;3.40;99.90;;;;;;5074725;28;20553;-77
2022/04/02 07:13:46;;;;;;;2.07;1.33;;;3.50;99.90;;;;;;5081077;28;20196;-82
2022/04/02 07:16:13;;;;;;;4.03;1.40;;;3.50;99.90;;;;;;5078755;28;20169;-77
2022/04/02 07:18:44;;;;;;;1.77;1.27;;;3.70;1.00;;;;;;5083636;28;20282;-78
2022/04/02 07:21:13;;;;;;;1.90;1.30;;;3.60;19.70;;;;;;5081689;28;20322;-85
2022/04/02 07:23:42;;;;;;;3.47;1.60;;;3.60;1.00;;;;;;5058559;28;20210;-88
2022/04/02 07:26:09;;;;;;;3.80;1.60;;;3.70;1.00;;;;;;5077236;28;20585;-82
2022/04/02 07:28:37;;;;;;;4.73;2.17;;;3.80;1.00;;;;;;5075561;28;20195;-80
2022/04/02 07:31:03;;;;;;;3.63;1.67;;;3.80;1.00;;;;;;5075405;28;20219;-84
2022/04/02 07:33:28;;;;;;;2.87;1.70;;;3.90;1.00;;;;;;5075358;28;20180;-82
2022/04/02 07:36:35;;;;;;;4.10;1.50;;;4.00;1.00;;;;;;5080798;28;20243;-80
2022/04/02 07:39:13;;;;;;;3.03;1.90;;;3.80;99.90;;;;;;5076393;28;20286;-82
2022/04/02 07:42:03;;;;;;;3.30;1.60;;;3.90;49.70;;;;;;5078045;28;20236;-80
2022/04/02 07:45:07;;;;;;;5.80;2.63;;;4.00;99.90;;;;;;5061630;28;20187;-82
2022/04/02 07:47:36;;;;;;;3.53;1.60;;;4.00;99.90;;;;;;5079455;28;20182;-79
2022/04/02 07:50:11;;;;;;;2.17;1.83;;;4.10;1.00;;;;;;5081421;28;20168;-86
2022/04/02 07:52:37;;;;;;;3.40;1.90;;;4.10;95.30;;;;;;5047524;28;20186;-85
2022/04/02 07:55:08;;;;;;;3.63;1.47;;;4.10;99.90;;;;;;5088889;28;20176;-78
2022/04/02 07:57:38;;;;;;;1.93;1.30;;;4.10;99.90;;;;;;5083387;28;20165;-80
2022/04/02 08:00:06;;;;;;;3.97;2.00;;;4.10;99.90;;;;;;5070446;28;20197;-77
2022/04/02 08:02:39;;;;;;;3.97;2.00;;;4.10;99.90;;;;;;5066249;28;20154;-77
2022/04/02 08:05:15;;;;;;;5.77;1.70;;;4.20;1.00;;;;;;5068872;28;20180;-77
2022/04/02 08:07:52;;;;;;;2.50;1.83;;;4.10;1.00;;;;;;5068061;28;20216;-78
2022/04/02 08:10:21;;;;;;;4.70;2.00;;;4.20;1.00;;;;;;5066591;28;20157;-81
2022/04/02 08:12:47;;;;;;;2.23;1.53;;;4.40;1.00;;;;;;5063269;28;20682;-85
2022/04/02 08:15:19;;;;;;;4.07;1.80;;;4.50;1.00;;;;;;5062396;28;20173;-82
2022/04/02 08:17:53;;;;;;;2.83;1.50;;;4.40;99.90;;;;;;5064420;28;20157;-77
2022/04/02 08:20:25;;;;;;;4.53;1.57;;;4.60;1.00;;;;;;5065400;28;20587;-76
2022/04/02 08:22:51;;;;;;;3.33;1.67;;;4.40;1.00;;;;;;5065910;28;20200;-79
2022/04/02 08:25:18;;;;;;;3.23;1.87;;;4.30;99.90;;;;;;5069892;28;20252;-77
2022/04/02 08:28:09;;;;;;;2.77;1.90;;;4.40;1.00;;;;;;5067455;28;20180;-82
2022/04/02 08:31:04;;;;;;;4.27;2.00;;;4.60;1.00;;;;;;5029291;28;20251;-80
2022/04/02 08:33:41;;;;;;;2.30;1.40;;;4.60;1.00;;;;;;5058316;28;20174;-77
2022/04/02 08:36:15;;;;;;;2.63;1.90;;;4.50;1.00;;;;;;5057501;28;20173;-78
2022/04/02 08:39:02;;;;;;;4.53;2.10;;;4.60;72.90;;;;;;5039658;28;20196;-85
2022/04/02 08:42:00;;;;;;;4.50;2.23;;;4.80;1.00;;;;;;5058331;28;20165;-79
2022/04/02 08:44:57;;;;;;;2.67;2.00;;;5.00;1.00;;;;;;5057056;28;20185;-78
2022/04/02 08:47:47;;;;;;;3.10;1.93;;;4.80;1.00;;;;;;5063314;28;20242;-85
2022/04/02 08:50:17;;;;;;;4.20;1.80;;;4.80;99.90;;;;;;5059594;28;20231;-85
2022/04/02 08:52:49;;;;;;;2.90;2.00;;;4.80;16.60;;;;;;5041230;28;20192;-85
2022/04/02 08:55:17;;;;;;;6.03;2.50;;;4.90;99.90;;;;;;5074613;28;20180;-84
2022/04/02 08:57:51;;;;;;;2.73;1.77;;;5.10;99.90;;;;;;5076350;28;20189;-78
2022/04/02 09:00:23;;;;;;;4.57;2.00;;;5.10;1.00;;;;;;5064279;28;20338;-81
2022/04/02 09:03:12;;;;;;;3.63;2.20;;;5.10;1.00;;;;;;5057575;28;20172;-82
2022/04/02 09:05:57;;;;;;;4.63;2.70;;;5.40;98.20;;;;;;5062271;28;20200;-86
2022/04/02 09:09:00;;;;;;;5.67;2.17;;;5.50;1.00;;;;;;5058081;28;20176;-82
2022/04/02 09:11:36;;;;;;;4.57;2.17;;;5.50;99.90;;;;;;5060559;28;20164;-79
2022/04/02 09:14:33;;;;;;;5.43;2.50;;;5.30;1.00;;;;;;5073930;28;20229;-84
2022/04/02 09:17:19;;;;;;;2.53;1.63;;;5.20;1.00;;;;;;5050735;28;20264;-83
2022/04/02 09:20:06;;;;;;;5.53;2.07;;;5.30;1.00;;;;;;5069158;28;20200;-84
2022/04/02 09:23:04;;;;;;;6.07;2.90;;;5.40;1.00;;;;;;5062001;28;20250;-83
2022/04/02 09:25:48;;;;;;;3.07;2.03;;;5.50;1.00;;;;;;5076017;28;20171;-79
2022/04/02 09:28:43;;;;;;;3.40;2.20;;;5.40;99.90;;;;;;5058993;28;20249;-80
2022/04/02 09:31:27;;;;;;;4.10;2.20;;;5.30;99.90;;;;;;5082781;28;20269;-78
2022/04/02 09:34:50;;;;;;;3.23;1.70;;;5.30;1.00;;;;;;5085352;28;20186;-82
2022/04/02 09:37:34;;;;;;;5.07;2.70;;;5.20;1.00;;;;;;4976389;28;20203;-79
2022/04/02 09:40:11;;;;;;;4.43;2.10;;;5.30;99.90;;;;;;4976654;28;20219;-77
2022/04/02 09:42:42;;;;;;;2.97;1.83;;;5.50;99.90;;;;;;5056244;28;20176;-78
2022/04/02 09:45:14;;;;;;;5.63;2.17;;;5.60;1.00;;;;;;5078139;28;20161;-87
2022/04/02 09:48:00;;;;;;;5.13;2.07;;;5.80;99.90;;;;;;5078433;28;20172;-81
2022/04/02 09:50:29;;;;;;;4.33;2.00;;;5.70;99.90;;;;;;5074982;28;20306;-81
2022/04/02 09:53:22;;;;;;;5.13;2.43;;;5.40;1.00;;;;;;5075368;28;20176;-78
2022/04/02 09:55:56;;;;;;;4.27;2.10;;;5.40;99.90;;;;;;5067672;28;20259;-79
2022/04/02 09:58:40;;;;;;;4.07;2.10;;;5.50;43.40;;;;;;5057438;28;20175;-84
2022/04/02 10:01:30;;;;;;;4.53;2.43;;;5.50;1.00;;;;;;5077110;28;20161;-78
2022/04/02 10:04:22;;;;;;;4.77;2.73;;;5.70;1.00;;;;;;5063605;28;20181;-87
2022/04/02 10:06:49;;;;;;;4.47;2.20;;;5.70;77.80;;;;;;5080162;28;20624;-79
2022/04/02 10:09:18;;;;;;;4.27;2.33;;;5.60;1.00;;;;;;5072102;28;20172;-80
2022/04/02 10:11:52;;;;;;;4.90;2.60;;;5.40;70.00;;;;;;5061548;28;20230;-78
2022/04/02 10:14:29;;;;;;;6.33;2.67;;;5.40;99.90;;;;;;5072486;28;20207;-79
2022/04/02 10:16:58;;;;;;;3.60;2.50;;;5.70;99.90;;;;;;5075584;28;20172;-78
2022/04/02 10:19:32;;;;;;;5.80;3.23;;;5.50;1.00;;;;;;5073750;28;20232;-83
2022/04/02 10:22:09;;;;;;;3.53;2.47;;;5.40;99.90;;;;;;5065873;28;20160;-82
2022/04/02 10:24:47;;;;;;;5.17;2.70;;;5.60;1.00;;;;;;5078844;28;20251;-81
2022/04/02 10:27:19;;;;;;;3.57;2.20;;;5.50;77.80;;;;;;5061402;28;20628;-79
2022/04/02 10:30:00;;;;;;;3.53;2.20;;;5.60;99.90;;;;;;5056169;28;20180;-82
2022/04/02 10:32:51;;;;;;;4.60;2.47;;;5.50;1.00;;;;;;5080125;28;20160;-82
2022/04/02 10:35:18;;;;;;;2.73;2.27;;;5.50;89.20;;;;;;5066036;28;20169;-80
2022/04/02 10:38:03;;;;;;;4.70;2.57;;;5.40;1.00;;;;;;5074794;28;20200;-83
2022/04/02 10:40:31;;;;;;;4.23;2.40;;;5.50;1.00;;;;;;5070192;28;20529;-85
2022/04/02 10:43:02;;;;;;;4.00;1.80;;;5.60;99.90;;;;;;5076277;28;20183;-82
2022/04/02 10:45:29;;;;;;;3.73;2.90;;;5.60;99.90;;;;;;5076411;28;20164;-85
2022/04/02 10:48:11;;;;;;;5.20;3.10;;;5.70;1.00;;;;;;5077436;28;20176;-84
2022/04/02 10:50:41;;;;;;;3.90;2.50;;;5.70;99.90;;;;;;5092269;28;20174;-78
2022/04/02 10:53:11;;;;;;;6.87;2.97;;;5.80;99.90;;;;;;5079881;28;20188;-81
2022/04/02 10:55:53;;;;;;;3.50;2.47;;;5.80;99.90;;;;;;5078743;28;20199;-78
2022/04/02 10:58:21;;;;;;;5.43;2.77;;;5.80;1.00;;;;;;5084727;28;20163;-79
2022/04/02 11:00:48;;;;;;;4.57;2.57;;;6.00;1.00;;;;;;5065312;28;20264;-84
2022/04/02 11:03:34;;;;;;;5.13;2.37;;;6.10;1.00;;;;;;5083880;28;20176;-86
2022/04/02 11:06:46;;;;;;;3.87;2.43;;;6.20;99.90;;;;;;5084577;28;20188;-85
2022/04/02 11:09:36;;;;;;;3.80;2.20;;;6.00;1.00;;;;;;5095959;28;20156;-87
2022/04/02 11:12:07;;;;;;;4.20;2.53;;;6.00;88.70;;;;;;5091149;28;20196;-88
2022/04/02 11:14:51;;;;;;;5.43;2.30;;;5.90;99.90;;;;;;5081124;28;20176;-88
2022/04/02 11:17:29;;;;;;;6.87;2.33;;;5.90;1.00;;;;;;5082982;28;20238;-86
2022/04/02 11:20:29;;;;;;;3.93;2.70;;;5.80;99.90;;;;;;5086006;28;20219;-77
2022/04/02 11:22:57;;;;;;;5.97;2.40;;;5.80;99.90;;;;;;5084241;28;20190;-81
2022/04/02 11:25:28;;;;;;;3.87;2.20;;;6.00;47.90;;;;;;5058183;28;20257;-79
2022/04/02 11:28:00;;;;;;;3.00;2.30;;;5.90;99.90;;;;;;5083392;28;20191;-75
2022/04/02 11:30:32;;;;;;;4.43;2.47;;;5.90;8.60;;;;;;5063740;28;20172;-77
2022/04/02 11:33:12;;;;;;;3.10;2.20;;;5.70;1.00;;;;;;5087554;28;20633;-81
2022/04/02 11:35:56;;;;;;;4.53;2.30;;;5.80;37.20;;;;;;5053197;28;20276;-81
2022/04/02 11:39:02;;;;;;;2.93;1.80;;;5.90;1.00;;;;;;5072699;28;20267;-81
2022/04/02 11:41:34;;;;;;;3.37;2.43;;;5.80;1.00;;;;;;4968716;28;20206;-77
2022/04/02 11:44:17;;;;;;;5.40;2.90;;;5.80;1.00;;;;;;4957636;28;20172;-85
2022/04/02 11:47:04;;;;;;;4.07;2.43;;;5.60;99.90;;;;;;5029440;28;20305;-87
2022/04/02 11:49:34;;;;;;;4.53;2.70;;;5.40;99.90;;;;;;5066287;28;20218;-79
2022/04/02 11:52:06;;;;;;;4.70;2.67;;;5.50;1.00;;;;;;5063867;28;20184;-78
2022/04/02 11:54:56;;;;;;;5.93;2.77;;;5.60;1.00;;;;;;5075861;28;20165;-78
2022/04/02 11:57:22;;;;;;;5.17;3.07;;;5.50;1.00;;;;;;5080548;28;20527;-79
2022/04/02 11:59:56;;;;;;;3.77;2.60;;;5.60;1.00;;;;;;5077158;28;20214;-82
2022/04/02 12:02:42;;;;;;;5.87;3.10;;;5.70;1.00;;;;;;5058894;28;20186;-80
2022/04/02 12:05:13;;;;;;;7.23;3.23;;;5.90;1.00;;;;;;5075090;28;20168;-82
2022/04/02 12:07:51;;;;;;;4.23;2.33;;;6.10;99.90;;;;;;5075400;28;20453;-80
2022/04/02 12:10:25;;;;;;;4.57;2.33;;;5.90;91.40;;;;;;5056014;28;20184;-86
2022/04/02 12:12:53;;;;;;;6.03;3.90;;;5.90;1.00;;;;;;5074889;28;20196;-85
2022/04/02 12:15:20;;;;;;;3.70;2.20;;;6.10;99.90;;;;;;5074037;28;20651;-84
2022/04/02 12:17:48;;;;;;;4.20;2.93;;;6.10;90.30;;;;;;5076250;28;20169;-78
2022/04/02 12:20:26;;;;;;;4.20;3.23;;;6.00;1.00;;;;;;5073917;28;20200;-82
2022/04/02 12:23:11;;;;;;;5.23;2.67;;;6.00;99.90;;;;;;5074436;28;20160;-79
2022/04/02 12:25:39;;;;;;;6.33;3.07;;;6.10;92.90;;;;;;5077143;28;20165;-84
2022/04/02 12:28:16;;;;;;;4.77;3.03;;;6.20;99.90;;;;;;5075853;28;20169;-87
2022/04/02 12:30:51;;;;;;;5.43;3.70;;;6.40;42.20;;;;;;5078505;28;20163;-81
2022/04/02 12:33:25;;;;;;;5.50;2.90;;;6.50;99.90;;;;;;5074162;28;20176;-79
2022/04/02 12:36:00;;;;;;;3.73;2.70;;;6.50;1.00;;;;;;5076878;28;20167;-80
2022/04/02 12:38:31;;;;;;;4.73;2.23;;;6.50;99.90;;;;;;5059698;28;20187;-85
2022/04/02 12:40:58;;;;;;;5.20;2.83;;;6.30;99.90;;;;;;5057983;28;20169;-78
2022/04/02 12:43:30;;;;;;;4.17;2.63;;;6.20;1.00;;;;;;5058690;28;20168;-80
2022/04/02 12:45:57;;;;;;;3.33;2.33;;;6.20;50.60;;;;;;5057132;28;20165;-80
2022/04/02 12:48:24;;;;;;;3.93;2.63;;;6.20;99.90;;;;;;5057032;28;20207;-80
2022/04/02 12:51:01;;;;;;;3.50;2.43;;;6.40;1.00;;;;;;5057151;28;20652;-86
2022/04/02 12:53:38;;;;;;;3.50;2.17;;;6.30;1.00;;;;;;5056790;28;20168;-79
2022/04/02 12:56:07;;;;;;;4.57;2.80;;;6.10;99.90;;;;;;5060042;28;20172;-77
2022/04/02 12:58:36;;;;;;;5.50;2.93;;;6.00;1.00;;;;;;5057399;28;20169;-79
2022/04/02 13:01:25;;;;;;;5.30;2.83;;;6.10;99.90;;;;;;5057660;28;20176;-80
2022/04/02 13:04:09;;;;;;;6.03;2.90;;;6.10;1.00;;;;;;5057047;28;20173;-78
2022/04/02 13:06:45;;;;;;;4.63;2.77;;;6.20;1.00;;;;;;5058402;28;20202;-84
2022/04/02 13:09:22;;;;;;;4.80;3.07;;;6.30;99.90;;;;;;5027168;28;20169;-86
2022/04/02 13:12:05;;;;;;;5.53;2.90;;;6.50;29.90;;;;;;5040448;28;20192;-80
2022/04/02 13:14:33;;;;;;;4.63;2.70;;;6.60;1.00;;;;;;5056937;28;20162;-84
2022/04/02 13:17:11;;;;;;;4.90;3.00;;;6.70;1.00;;;;;;5058336;28;20219;-87
2022/04/02 13:22:51;;;;;;;3.70;2.60;;;6.70;99.90;;;;;;5067373;28;20191;-80
2022/04/02 13:25:24;;;;;;;3.63;2.50;;;6.70;1.00;;;;;;5059394;28;20504;-83
2022/04/02 13:28:06;;;;;;;3.80;2.63;;;6.50;1.00;;;;;;5057231;28;20283;-80
2022/04/02 13:30:49;;;;;;;5.03;2.70;;;6.40;1.00;;;;;;5057163;28;20157;-79
2022/04/02 13:33:35;;;;;;;4.87;3.00;;;6.40;1.00;;;;;;5064685;28;20186;-89
2022/04/02 13:36:13;;;;;;;5.23;2.77;;;6.50;1.00;;;;;;5087362;28;20176;-79
2022/04/02 13:38:51;;;;;;;5.47;2.70;;;6.50;99.90;;;;;;5075733;28;20169;-78